METAR AND TAF INFORMATION
METAR FOR EKVG
ADDS - METARS form results

(1406 UTC 22 April 2018)
Data provider http://aviationweather.gov/adds/metars/
 
METAR text: EKVG 221350Z AUTO 13006KT 5000NDV -SHRA OVC003/// 08/08 Q0994 RMK BKN004/// WIND 850FT 15015KT
Conditions at: EKVG (SORVAAG/VAGAR , DK) observed 1350 UTC 22 April 2018
Temperature: 8.0°C (46°F)
Dewpoint: 8.0°C (46°F) [RH = 100%]
Pressure (altimeter): 29.35 inches Hg (994.0 mb)
Winds: from the SE (130 degrees) at 7 MPH (6 knots; 3.1 m/s)
Visibility: missing
Ceiling: 300 feet AGL
Clouds: overcast cloud deck at 300 feet AGL
Weather: -SHRA  (light rain showers)

METAR text: EKVG 221320Z AUTO 13006KT 4600NDV -SHRA BR BKN003/// 08/08 Q0995 RMK BKN003/// WIND 850FT 15014KT
Conditions at: EKVG (SORVAAG/VAGAR , DK) observed 1320 UTC 22 April 2018
Temperature: 8.0°C (46°F)
Dewpoint: 8.0°C (46°F) [RH = 100%]
Pressure (altimeter): 29.38 inches Hg (995.0 mb)
Winds: from the SE (130 degrees) at 7 MPH (6 knots; 3.1 m/s)
Visibility: missing
Ceiling: 300 feet AGL
Clouds: broken clouds at 300 feet AGL
Weather: -SHRA BR  (light rain showers, mist)

Forecast for: EKVG (SORVAAG/VAGAR , DK)
Text: TAF AMD EKVG 221222Z 2212/2220 13012KT 6000 -RADZ BKN008
Forecast period: 1200 to 1500 UTC 22 April 2018
Forecast type: FROM: standard forecast or significant change
Winds: from the SE (130 degrees) at 14 MPH (12 knots; 6.2 m/s)
Visibility: 4 miles (6 km)
Ceiling: 800 feet AGL
Clouds: broken clouds at 800 feet AGL
Weather: -RA -DZ  (light rain, light drizzle)
Text: TEMPO 2212/2220 2500 BR BKN002
Forecast period: 1200 to 2000 UTC 22 April 2018
Forecast type: TEMPORARY: The following changes expected for less than half the time period
Visibility: 1.55 miles (2.49 km)
Ceiling: 200 feet AGL
Clouds: broken clouds at 200 feet AGL
Weather: BR  (mist)
Text: BECMG 2215/2218 23010KT
Forecast period: 1500 to 2000 UTC 22 April 2018
Forecast type: BECOMING: Conditions expected to become as follows by 1800 UTC 22 April 2018
Winds: from the SW (230 degrees) at 12 MPH (10 knots; 5.2 m/s)
Visibility: 4 miles (6 km)
Ceiling: 800 feet AGL
Clouds: broken clouds at 800 feet AGL
Weather: -RA -DZ  (light rain, light drizzle)

 AIRPORT MAP

 RUNWAY INFORMATION
Runway 13 Runway length 5902 ft Runway width 98 ft
Runway elevation 268 ft Runway displaced threshold 0 ft Runway heading 118
Runway 31 Runway length 5902 ft Runway width 98 ft
Runway elevation 252 ft Runway displaced threshold 0 ft Runway heading 298

 AIRPORT FREQUENCIES
Type AFIS Name AFIS Frequency 124.85 MHZ

 AIRPORT NEAR NAVIGATION AIDS
Type NDB Name Myggenes Frequency 337 KHZ
Type NDB Name Nolso Frequency 404 KHZ
Type NDB Name Vagar Frequency 348 KHZ



Powered by Virtual Airlines Manager [v2.6.2]